Vergennes, VT (05491)

12:16 PM EDT on August 28, 2014 (GMT -0400)
Vergennes Union Elementary School | Change Station
CLOSE
Current Station
Personal Weather Station
Location: Vergennes, VT
Elevation: 180 ft
Nearby Weather Stations

Elev 180 ft 44.17 °N, 73.25 °W | Updated 7 minutes ago

Partly Cloudy
Partly Cloudy
68.6 °F
Feels Like 68.6 °F
N
0.0
Wind Variable Wind from NW
Gusts 7.0 mph

Today
High -- | Low -- °F
--% Chance of Precip.
Yesterday
High -- | Low -- °F
Precip. -- in
6:11 AM 7:36 PM
Waxing Crescent, 9% visible
Pressure 29.92 in
Visibility 10.0 miles
Clouds Overcast 7500 ft
Dew Point 57 °F
Humidity 66%
Rainfall 0.00 in
Snow Depth Not available.
UV 3 out of 12
Pollen 7.60 out of 12
Ozone Good
PM2.5 Good
Flu Activity Not available.
METAR K6B0 281555Z AUTO 36010KT 10SM OVC075 19/12 A2992 RMK AO2 T01920120

More Conditions Fewer Conditions

Pressure 29.92 in
Visibility 10.0 miles
Clouds Overcast 7500 ft
Dew Point 57 °F
Humidity 66%
Rainfall 0.00 in
Snow Depth Not available.
UV 3 out of 12
Pollen 7.60 out of 12
Ozone Good
PM2.5 Good
Flu Activity Not available.
METAR K6B0 281555Z AUTO 36010KT 10SM OVC075 19/12 A2992 RMK AO2 T01920120

More Conditions Fewer Conditions

10-Day Weather Forecast

Almanac

Astronomy

Aug. 28, 2014 Rise Set
Actual Time 6:11 AM EDT 7:36 PM EDT
Civil Twilight 5:41 AM EDT 8:06 PM EDT
Nautical Twilight 5:04 AM EDT 8:42 PM EDT
Astronomical Twilight 4:26 AM EDT 9:21 PM EDT
Moon 9:09 AM EDT 8:50 PM EDT
Length of Visible Light 14h 24m
Length of Day
13h 24m
Tomorrow will be 2m 54s shorter.
Waxing Crescent, 9% of the Moon is Illuminated
Today
Waxing Crescent
Sep 2
First Quarter
Sep 8
Full
Sep 15
Last Quarter
Sep 24
New

Today's Extremes

State Highs State Lows

Community

WunderPhotos

Upload Photos

1,748,004 photos uploaded!

Nearby

Air Quality

  Air Quality AQ Index Pollutant
Yesterday Good
PM2.5
Yesterday Good
OZONE
Current Good
PM2.5
Current Good
OZONE
Thursday Good
PM2.5
Friday Good
PM2.5

Snow Depth

Station Depth Elevation
No new snow has been reported.

Earthquake Activity

City Distance Mag. Time & Date
No recent earthquake activity has been reported nearby.
Minimum magnitude displayed is 2.5.

Coastal Water Temperatures

Place Temperature
No Stations Reporting

Nearby Weather Stations